Página principal
METAR-TAF:

METAR-TAF

Aeroportos :

Aeroporto Internacional de Piarco

Port of Spain, Trinidad, Trinidad e Tobago

latitude: 10-37N, longitude: 061-21W, altura: 12 m

Observação actual do tempo

O boletim foi feito há 29 minutos, às 10:00 UTC
Vento calmo
Temperatura 21°C
Humidade 94%
Pressão 1014 hPa
Visibilidade 10 km ou mais
Poucas nuvensa uma altura de 1400 ft

METAR: TTPP 191000Z 00000KT 9999 FEW014 21/20 Q1014 NOSIG

Hora: 06:29 (10:29 UTC)

Previsão

O boletim foi feito há 6 horas e 29 minutos, às 04:00 UTC
Previsão válida de 19 às 06 UTC a 20 às 06 UTC
Vento 5 kt de este
Visibilidade 10 km ou mais
Poucas nuvensa uma altura de 1600 ft
Tornando-se
de 19 às 11 UTC a 19 às 13 UTC
Vento 15 kt de este
Nuvens dispersasa uma altura de 2000 ft
Tornando-se
de 19 às 23 UTC a 20 às 01 UTC
Vento 10 kt de este
Nuvens dispersasa uma altura de 1800 ft

TAF: TTPP 190400Z 1906/2006 10005KT 9999 FEW016 BECMG 1911/1913 10015KT SCT020 BECMG 1923/2001 09010KT SCT018

Observações e previsões do tempo de mais de 4000 aeroportos (mensagens METAR e TAF).

As estações disponíveis são os pontos amarelos e vermelhos sobre o mapa.

Mova o rato sobre o mapa para ver o nome da estação.

Depois clique no ponto para visualizar as observações e previsões meteorológicas.

Para alterar o mapa : clique nos botões verdes com uma cruz preta para aumentar o zoom; no botão verde com uma pitada de zoom; ou nas setas verdes para mapas adjacentes.


METAR-TAF: